Time;durP1;ratioP1;P1;durP2;ratioP2;P2;SDS_P1;SDS_P2;PMS_P1;PMS_P2;Temp;Humidity;BMP_temperature;BMP_pressure;BME280_temperature;BME280_humidity;BME280_pressure;Samples;Min_cycle;Max_cycle;Signal;HPM_P1;HPM_P2
2021/05/13 00:02:03;;;;;;;26.67;24.17;;;7.70;99.90;;;;;;5113301;27;20464;-77
2021/05/13 00:04:30;;;;;;;28.57;25.67;;;7.60;99.90;;;;;;5114661;27;20463;-74
2021/05/13 00:06:57;;;;;;;24.43;22.43;;;7.60;99.90;;;;;;5114672;27;20473;-76
2021/05/13 00:09:23;;;;;;;22.90;21.20;;;7.60;99.90;;;;;;5117481;27;20609;-73
2021/05/13 00:11:52;;;;;;;24.87;22.97;;;7.50;99.90;;;;;;5116836;27;20862;-76
2021/05/13 00:14:19;;;;;;;24.83;22.80;;;7.30;99.90;;;;;;5119391;27;20465;-73
2021/05/13 00:16:45;;;;;;;23.67;21.87;;;7.30;99.90;;;;;;5114082;27;20483;-74
2021/05/13 00:19:14;;;;;;;23.10;21.23;;;7.20;99.90;;;;;;5111478;27;20457;-74
2021/05/13 00:21:44;;;;;;;23.30;21.07;;;7.20;99.90;;;;;;5110376;27;20460;-76
2021/05/13 00:24:12;;;;;;;23.57;21.53;;;7.10;99.90;;;;;;5116936;27;20456;-74
2021/05/13 00:26:40;;;;;;;25.83;23.30;;;7.10;99.90;;;;;;5116546;27;20464;-74
2021/05/13 00:29:08;;;;;;;27.03;24.53;;;7.10;99.90;;;;;;5113508;27;20821;-78
2021/05/13 00:31:34;;;;;;;33.90;30.00;;;7.20;99.90;;;;;;5113342;27;20465;-74
2021/05/13 00:34:01;;;;;;;32.93;29.20;;;7.10;99.90;;;;;;5117971;27;20481;-74
2021/05/13 00:36:29;;;;;;;29.10;26.40;;;7.10;99.90;;;;;;5115675;27;20496;-76
2021/05/13 00:38:56;;;;;;;25.67;23.40;;;7.00;99.90;;;;;;5117128;27;20448;-74
2021/05/13 00:41:23;;;;;;;28.80;25.90;;;7.00;99.90;;;;;;5110864;27;20468;-76
2021/05/13 00:43:50;;;;;;;25.53;23.30;;;7.10;99.90;;;;;;5110368;27;20584;-77
2021/05/13 00:46:16;;;;;;;25.53;23.40;;;7.00;99.90;;;;;;5118058;27;20477;-74
2021/05/13 00:48:46;;;;;;;25.50;23.40;;;6.90;99.90;;;;;;5111240;27;20467;-74
2021/05/13 00:51:13;;;;;;;23.93;21.70;;;6.90;99.90;;;;;;5113130;27;20989;-74
2021/05/13 00:53:42;;;;;;;32.90;26.00;;;6.80;99.90;;;;;;5116463;27;20462;-74
2021/05/13 00:56:08;;;;;;;28.03;25.43;;;6.90;99.90;;;;;;5110106;27;20461;-76
2021/05/13 00:58:38;;;;;;;26.63;24.30;;;6.90;99.90;;;;;;5115993;27;20448;-75
2021/05/13 01:01:07;;;;;;;27.33;24.90;;;7.00;99.90;;;;;;5118597;27;20571;-75
2021/05/13 01:03:35;;;;;;;25.83;23.63;;;7.00;99.90;;;;;;5115629;27;20460;-76
2021/05/13 01:06:04;;;;;;;26.33;23.90;;;7.00;99.90;;;;;;5113967;27;20955;-74
2021/05/13 01:08:30;;;;;;;23.67;21.87;;;6.90;99.90;;;;;;5113912;27;20726;-74
2021/05/13 01:10:57;;;;;;;22.23;20.43;;;6.90;99.90;;;;;;5114869;27;20457;-74
2021/05/13 01:13:25;;;;;;;22.73;20.93;;;6.80;99.90;;;;;;5109041;27;20472;-73
2021/05/13 01:15:54;;;;;;;25.10;23.00;;;6.60;99.90;;;;;;5115627;27;21021;-76
2021/05/13 01:18:22;;;;;;;24.07;22.20;;;6.50;99.90;;;;;;5109424;27;20541;-74
2021/05/13 01:20:50;;;;;;;25.83;23.60;;;6.50;99.90;;;;;;5111673;27;21048;-73
2021/05/13 01:23:18;;;;;;;26.13;23.80;;;6.50;99.90;;;;;;5113203;27;20489;-73
2021/05/13 01:25:50;;;;;;;24.43;22.30;;;6.50;99.90;;;;;;5115208;27;21065;-77
2021/05/13 01:28:16;;;;;;;24.47;22.37;;;6.50;99.90;;;;;;5111376;27;20828;-76
2021/05/13 01:30:44;;;;;;;25.27;23.17;;;6.50;99.90;;;;;;5113898;27;20547;-75
2021/05/13 01:33:12;;;;;;;26.67;24.37;;;6.50;99.90;;;;;;5110436;27;20463;-73
2021/05/13 01:35:38;;;;;;;27.37;24.60;;;6.40;99.90;;;;;;5111201;27;20487;-74
2021/05/13 01:38:07;;;;;;;25.57;23.17;;;6.40;99.90;;;;;;5110821;27;20485;-73
2021/05/13 01:40:35;;;;;;;26.53;24.13;;;6.50;99.90;;;;;;5120891;27;20461;-74
2021/05/13 01:43:02;;;;;;;26.27;23.67;;;6.40;99.90;;;;;;5112580;27;20828;-73
2021/05/13 01:45:30;;;;;;;26.70;24.47;;;6.30;99.90;;;;;;5113316;27;20461;-73
2021/05/13 01:48:02;;;;;;;24.67;22.60;;;6.40;99.90;;;;;;5112179;27;20836;-75
2021/05/13 01:50:29;;;;;;;30.17;27.37;;;6.40;99.90;;;;;;5111950;27;20462;-75
2021/05/13 01:52:57;;;;;;;29.07;25.67;;;6.40;99.90;;;;;;5104556;27;20460;-73
2021/05/13 01:55:24;;;;;;;27.87;25.30;;;6.50;99.90;;;;;;5109721;27;21049;-73
2021/05/13 01:57:51;;;;;;;27.23;24.90;;;6.50;99.90;;;;;;5115941;27;20488;-73
2021/05/13 02:00:19;;;;;;;26.30;23.90;;;6.50;99.90;;;;;;5109802;27;20467;-75
2021/05/13 02:02:47;;;;;;;28.77;26.13;;;6.50;99.90;;;;;;5115841;27;20456;-76
2021/05/13 02:05:14;;;;;;;26.37;23.57;;;6.40;99.90;;;;;;5106441;27;20484;-74
2021/05/13 02:07:41;;;;;;;27.30;24.67;;;6.40;99.90;;;;;;5115123;27;20476;-74
2021/05/13 02:10:10;;;;;;;28.17;25.40;;;6.30;99.90;;;;;;5110706;27;20449;-74
2021/05/13 02:12:37;;;;;;;27.77;25.07;;;6.40;99.90;;;;;;5113637;27;20452;-74
2021/05/13 02:15:07;;;;;;;31.67;25.90;;;6.40;99.90;;;;;;5110465;27;20464;-75
2021/05/13 02:17:33;;;;;;;29.10;26.43;;;6.50;99.90;;;;;;5113254;27;20485;-76
2021/05/13 02:19:59;;;;;;;29.27;26.27;;;6.50;99.90;;;;;;5106871;27;20482;-74
2021/05/13 02:22:26;;;;;;;29.87;26.97;;;6.50;99.90;;;;;;5115072;27;20478;-76
2021/05/13 02:24:52;;;;;;;28.60;25.50;;;6.40;99.90;;;;;;5114801;27;20460;-74
2021/05/13 02:27:19;;;;;;;29.80;26.97;;;6.50;99.90;;;;;;5111309;27;20468;-75
2021/05/13 02:29:45;;;;;;;28.07;25.43;;;6.50;99.90;;;;;;5111038;27;20971;-72
2021/05/13 02:32:12;;;;;;;26.00;23.53;;;6.40;99.90;;;;;;5107468;27;20456;-76
2021/05/13 02:34:39;;;;;;;28.30;25.53;;;6.30;99.90;;;;;;5104568;28;20538;-73
2021/05/13 02:37:05;;;;;;;31.03;27.67;;;6.30;99.90;;;;;;5107973;28;20493;-76
2021/05/13 02:39:31;;;;;;;29.20;26.33;;;6.30;99.90;;;;;;5105964;28;21010;-76
2021/05/13 02:41:58;;;;;;;27.13;24.50;;;6.40;99.90;;;;;;5106395;27;20926;-75
2021/05/13 02:44:24;;;;;;;28.67;25.90;;;6.40;99.90;;;;;;5114349;28;20482;-75
2021/05/13 02:46:50;;;;;;;29.13;26.10;;;6.40;99.90;;;;;;5114431;27;21023;-73
2021/05/13 02:49:17;;;;;;;30.20;27.10;;;6.30;99.90;;;;;;5111101;28;21066;-77
2021/05/13 02:51:44;;;;;;;31.70;28.43;;;6.30;99.90;;;;;;5108917;28;20466;-73
2021/05/13 02:54:10;;;;;;;29.93;26.93;;;6.30;99.90;;;;;;5108299;28;20529;-75
2021/05/13 02:56:36;;;;;;;26.80;24.20;;;6.30;99.90;;;;;;5111479;28;21030;-73
2021/05/13 02:59:03;;;;;;;26.93;24.50;;;6.20;99.90;;;;;;5109585;28;21057;-76
2021/05/13 03:01:30;;;;;;;25.70;23.30;;;6.10;99.90;;;;;;5106825;28;21061;-74
2021/05/13 03:03:58;;;;;;;25.37;23.07;;;5.90;99.90;;;;;;5114964;28;20467;-74
2021/05/13 03:06:27;;;;;;;23.33;21.43;;;5.80;99.90;;;;;;5111964;28;20534;-73
2021/05/13 03:08:56;;;;;;;24.27;22.40;;;5.80;99.90;;;;;;5112895;28;20499;-73
2021/05/13 03:11:23;;;;;;;24.03;22.13;;;5.80;99.90;;;;;;5105733;28;20464;-73
2021/05/13 03:13:51;;;;;;;25.67;23.30;;;5.70;99.90;;;;;;5110047;28;20883;-73
2021/05/13 03:16:17;;;;;;;27.33;24.93;;;5.70;99.90;;;;;;5108997;28;20485;-73
2021/05/13 03:18:47;;;;;;;31.53;26.00;;;5.70;99.90;;;;;;5111511;28;20467;-74
2021/05/13 03:21:18;;;;;;;25.53;23.33;;;5.70;99.90;;;;;;5108053;28;21269;-73
2021/05/13 03:23:51;;;;;;;27.30;24.90;;;5.60;99.90;;;;;;5106679;28;20463;-73
2021/05/13 03:26:26;;;;;;;28.73;25.83;;;5.60;99.90;;;;;;5112994;28;20461;-73
2021/05/13 03:28:52;;;;;;;37.57;31.67;;;5.60;99.90;;;;;;5109483;28;20999;-74
2021/05/13 03:31:18;;;;;;;34.83;29.23;;;5.70;99.90;;;;;;5113983;28;20725;-73
2021/05/13 03:33:45;;;;;;;27.57;24.97;;;5.70;99.90;;;;;;5109342;28;20488;-73
2021/05/13 03:36:11;;;;;;;28.77;25.83;;;5.70;99.90;;;;;;5113785;28;20470;-74
2021/05/13 03:38:37;;;;;;;35.67;29.00;;;5.70;99.90;;;;;;5109298;28;20934;-73
2021/05/13 03:41:04;;;;;;;45.23;31.20;;;5.70;99.90;;;;;;5122751;27;20507;-73
2021/05/13 03:43:31;;;;;;;33.50;29.97;;;5.80;99.90;;;;;;5113784;28;20466;-73
2021/05/13 03:45:58;;;;;;;30.67;27.57;;;5.70;99.90;;;;;;5118686;28;20499;-74
2021/05/13 03:48:24;;;;;;;39.00;30.07;;;5.70;99.90;;;;;;5109378;28;20463;-73
2021/05/13 03:50:50;;;;;;;37.07;30.20;;;5.70;99.90;;;;;;5111804;28;20833;-73
2021/05/13 03:53:18;;;;;;;42.67;33.80;;;5.80;99.90;;;;;;5115929;28;20465;-74
2021/05/13 03:55:48;;;;;;;49.70;35.13;;;5.80;99.90;;;;;;5109947;28;20508;-75
2021/05/13 03:58:15;;;;;;;37.03;33.03;;;5.90;99.90;;;;;;5111976;27;20922;-77
2021/05/13 04:00:45;;;;;;;51.07;36.90;;;5.90;99.90;;;;;;5113383;27;21006;-74
2021/05/13 04:03:12;;;;;;;43.07;33.23;;;5.90;99.90;;;;;;5119192;27;20483;-75
2021/05/13 04:05:38;;;;;;;33.00;29.50;;;5.90;99.90;;;;;;5119818;27;21248;-73
2021/05/13 04:08:07;;;;;;;46.13;30.73;;;5.90;99.90;;;;;;5119599;27;20456;-74
2021/05/13 04:10:33;;;;;;;40.20;31.50;;;5.90;99.90;;;;;;5109889;27;21385;-76
2021/05/13 04:13:03;;;;;;;28.27;25.23;;;5.90;99.90;;;;;;5117191;27;20459;-73
2021/05/13 04:15:30;;;;;;;30.87;27.53;;;5.90;99.90;;;;;;5114867;27;20456;-74
2021/05/13 04:17:56;;;;;;;34.53;30.90;;;5.80;99.90;;;;;;5117544;27;20491;-73
2021/05/13 04:20:23;;;;;;;30.43;27.20;;;5.80;99.90;;;;;;5120765;27;20954;-73
2021/05/13 04:22:50;;;;;;;31.53;28.20;;;5.90;99.90;;;;;;5119150;27;20464;-75
2021/05/13 04:25:16;;;;;;;27.87;25.10;;;5.90;99.90;;;;;;5117038;27;20568;-76
2021/05/13 04:27:43;;;;;;;26.87;24.57;;;5.90;99.90;;;;;;5110421;27;20461;-74
2021/05/13 04:30:10;;;;;;;28.80;26.17;;;5.90;99.90;;;;;;5115560;27;20464;-76
2021/05/13 04:32:37;;;;;;;30.27;27.27;;;5.90;99.90;;;;;;5118855;27;21028;-73
2021/05/13 04:35:05;;;;;;;30.33;27.03;;;5.80;99.90;;;;;;5115952;27;21013;-75
2021/05/13 04:37:31;;;;;;;32.63;27.53;;;5.80;99.90;;;;;;5120540;27;20509;-73
2021/05/13 04:39:58;;;;;;;29.23;26.60;;;5.90;99.90;;;;;;5114275;27;20537;-73
2021/05/13 04:42:25;;;;;;;31.80;27.53;;;6.00;99.90;;;;;;5113269;27;20513;-73
2021/05/13 04:44:52;;;;;;;28.03;25.30;;;6.00;99.90;;;;;;5117667;27;20460;-73
2021/05/13 04:47:24;;;;;;;27.00;24.40;;;6.10;99.90;;;;;;5116741;27;20534;-73
2021/05/13 04:49:53;;;;;;;26.53;24.20;;;6.10;99.90;;;;;;5113018;27;21070;-75
2021/05/13 04:52:23;;;;;;;32.13;28.43;;;6.10;99.90;;;;;;5116459;27;20464;-75
2021/05/13 04:54:50;;;;;;;28.57;25.87;;;6.20;99.90;;;;;;5115395;27;20463;-76
2021/05/13 04:57:17;;;;;;;28.37;25.27;;;6.20;99.90;;;;;;5115271;27;20560;-76
2021/05/13 04:59:44;;;;;;;28.20;25.60;;;6.30;99.90;;;;;;5116403;27;20829;-73
2021/05/13 05:02:11;;;;;;;27.33;24.90;;;6.40;99.90;;;;;;5112420;27;20956;-73
2021/05/13 05:04:37;;;;;;;26.63;24.23;;;6.50;99.90;;;;;;5109282;27;20457;-74
2021/05/13 05:07:05;;;;;;;27.87;25.20;;;6.60;99.90;;;;;;5115897;27;20518;-73
2021/05/13 05:09:32;;;;;;;31.63;28.37;;;6.70;99.90;;;;;;5111351;27;20501;-73
2021/05/13 05:11:58;;;;;;;28.27;25.57;;;6.80;99.90;;;;;;5113426;27;20538;-73
2021/05/13 05:14:25;;;;;;;29.60;26.50;;;7.00;99.90;;;;;;5113816;27;20824;-75
2021/05/13 05:16:52;;;;;;;30.60;27.50;;;7.10;99.90;;;;;;5116095;27;20489;-73
2021/05/13 05:19:18;;;;;;;30.80;27.10;;;7.20;99.90;;;;;;5107787;27;20464;-74
2021/05/13 05:21:44;;;;;;;30.47;27.00;;;7.30;99.90;;;;;;5114214;27;20975;-73
2021/05/13 05:24:11;;;;;;;41.33;29.43;;;7.40;99.90;;;;;;5119215;27;20977;-78
2021/05/13 05:26:38;;;;;;;43.70;35.23;;;7.60;99.90;;;;;;5111973;27;20861;-73
2021/05/13 05:29:04;;;;;;;53.70;34.77;;;7.70;99.90;;;;;;5114170;27;20967;-74
2021/05/13 05:31:31;;;;;;;44.97;33.90;;;7.90;99.90;;;;;;5116680;27;20463;-77
2021/05/13 05:33:57;;;;;;;66.80;43.87;;;8.00;99.90;;;;;;5116194;27;20572;-73
2021/05/13 05:36:26;;;;;;;57.43;41.00;;;8.20;99.90;;;;;;5116720;27;20476;-74
2021/05/13 05:38:54;;;;;;;68.83;44.87;;;8.50;99.90;;;;;;5114780;27;20553;-73
2021/05/13 05:41:22;;;;;;;49.67;35.57;;;8.70;99.90;;;;;;5123132;27;20816;-74
2021/05/13 05:43:48;;;;;;;45.03;34.70;;;8.90;99.90;;;;;;5112006;27;20457;-74
2021/05/13 05:46:15;;;;;;;58.13;40.07;;;8.90;99.90;;;;;;5113793;27;20487;-75
2021/05/13 05:48:41;;;;;;;69.70;45.50;;;9.00;99.90;;;;;;5107049;27;20497;-74
2021/05/13 05:51:07;;;;;;;57.17;40.20;;;9.20;99.90;;;;;;5111849;27;20452;-76
2021/05/13 05:53:34;;;;;;;69.90;42.97;;;9.30;99.90;;;;;;5113169;27;20558;-74
2021/05/13 05:56:00;;;;;;;56.27;40.77;;;9.40;99.90;;;;;;5112118;27;20452;-74
2021/05/13 05:58:27;;;;;;;62.73;42.63;;;9.60;99.90;;;;;;5112429;27;20488;-74
2021/05/13 06:00:54;;;;;;;58.73;42.13;;;9.70;99.90;;;;;;5107594;27;20458;-74
2021/05/13 06:03:20;;;;;;;59.30;43.27;;;9.80;99.90;;;;;;5112771;27;20565;-74
2021/05/13 06:05:47;;;;;;;65.03;42.50;;;9.90;99.90;;;;;;5113078;27;20463;-75
2021/05/13 06:08:14;;;;;;;55.63;40.97;;;10.00;99.90;;;;;;5112554;27;20463;-75
2021/05/13 06:10:40;;;;;;;49.70;38.83;;;10.10;99.90;;;;;;5110107;27;20461;-74
2021/05/13 06:13:08;;;;;;;53.80;39.87;;;10.20;99.90;;;;;;5108954;27;21001;-74
2021/05/13 06:15:36;;;;;;;52.67;40.20;;;10.20;99.90;;;;;;5105100;27;20834;-74
2021/05/13 06:18:03;;;;;;;55.90;41.57;;;10.30;99.90;;;;;;5113755;27;20509;-77
2021/05/13 06:20:31;;;;;;;66.77;42.47;;;10.40;99.90;;;;;;5114783;27;20459;-78
2021/05/13 06:22:57;;;;;;;64.03;43.00;;;10.50;99.90;;;;;;5114000;27;20494;-74
2021/05/13 06:25:25;;;;;;;51.77;41.40;;;10.60;99.90;;;;;;5109307;27;20470;-75
2021/05/13 06:27:52;;;;;;;47.07;38.73;;;10.80;99.90;;;;;;5111581;27;20510;-77
2021/05/13 06:30:20;;;;;;;45.27;38.70;;;11.00;99.90;;;;;;5107722;27;20973;-74
2021/05/13 06:32:48;;;;;;;49.00;40.30;;;11.10;99.90;;;;;;5107894;27;20856;-73
2021/05/13 06:35:15;;;;;;;45.23;39.47;;;11.20;99.90;;;;;;5112653;27;20480;-73
2021/05/13 06:37:42;;;;;;;44.37;39.67;;;11.20;99.90;;;;;;5116354;27;20823;-73
2021/05/13 06:40:09;;;;;;;44.30;39.00;;;11.30;99.90;;;;;;5117959;27;20445;-73
2021/05/13 06:42:36;;;;;;;43.00;37.13;;;11.50;99.90;;;;;;5108251;27;20468;-72
2021/05/13 06:45:03;;;;;;;44.17;39.47;;;11.70;99.90;;;;;;5108520;28;20482;-72
2021/05/13 06:47:30;;;;;;;45.90;39.80;;;11.80;99.90;;;;;;5107309;27;20569;-76
2021/05/13 06:49:58;;;;;;;45.90;39.63;;;11.90;99.90;;;;;;5112112;28;20960;-74
2021/05/13 06:52:24;;;;;;;43.17;37.60;;;12.00;99.90;;;;;;5105428;28;20998;-73
2021/05/13 06:54:50;;;;;;;43.83;38.67;;;12.20;99.90;;;;;;5108517;28;20471;-75
2021/05/13 06:57:17;;;;;;;44.93;40.10;;;12.30;99.90;;;;;;5112844;28;20634;-76
2021/05/13 06:59:45;;;;;;;45.77;40.87;;;12.50;99.90;;;;;;5115975;28;20459;-75
2021/05/13 07:02:12;;;;;;;49.63;43.53;;;12.70;99.90;;;;;;5107906;28;20511;-73
2021/05/13 07:04:39;;;;;;;48.87;43.60;;;12.80;99.90;;;;;;5113988;28;20471;-73
2021/05/13 07:07:07;;;;;;;48.67;43.77;;;12.90;99.90;;;;;;5114343;28;20460;-73
2021/05/13 07:09:33;;;;;;;48.80;43.60;;;13.00;99.90;;;;;;5109557;28;20468;-73
2021/05/13 07:12:00;;;;;;;48.27;42.67;;;13.10;99.90;;;;;;5110285;28;20951;-73
2021/05/13 07:14:27;;;;;;;45.90;41.00;;;13.20;99.90;;;;;;5108357;28;20459;-74
2021/05/13 07:16:53;;;;;;;45.10;40.27;;;13.20;99.90;;;;;;5114443;28;20480;-74
2021/05/13 07:19:19;;;;;;;44.97;40.30;;;13.30;99.90;;;;;;5112429;28;20462;-74
2021/05/13 07:21:46;;;;;;;45.93;40.87;;;13.50;99.90;;;;;;5107637;28;20457;-74
2021/05/13 07:24:14;;;;;;;44.77;40.57;;;13.60;99.90;;;;;;5115733;28;20863;-73
2021/05/13 07:26:41;;;;;;;44.60;39.83;;;13.60;99.90;;;;;;5109867;28;20457;-76
2021/05/13 07:29:09;;;;;;;43.27;38.90;;;13.50;99.90;;;;;;5118015;28;20456;-74
2021/05/13 07:31:35;;;;;;;39.00;35.10;;;13.50;99.90;;;;;;5117954;27;20458;-74
2021/05/13 07:34:01;;;;;;;42.43;37.87;;;13.60;99.90;;;;;;5111477;27;20484;-75
2021/05/13 07:36:28;;;;;;;41.00;36.67;;;13.90;99.90;;;;;;5117645;27;20471;-74
2021/05/13 07:38:56;;;;;;;43.33;38.93;;;14.10;99.90;;;;;;5106587;27;20476;-76
2021/05/13 07:41:23;;;;;;;41.80;37.40;;;14.20;99.90;;;;;;5112502;27;20456;-76
2021/05/13 07:43:52;;;;;;;42.20;37.90;;;14.30;99.90;;;;;;5116639;27;20448;-77
2021/05/13 07:46:20;;;;;;;42.90;38.83;;;14.50;99.90;;;;;;5116485;27;21043;-74
2021/05/13 07:48:48;;;;;;;43.07;38.83;;;14.80;99.90;;;;;;5116731;27;20990;-76
2021/05/13 07:51:15;;;;;;;44.23;39.80;;;14.90;99.90;;;;;;5115908;27;20456;-73
2021/05/13 07:53:42;;;;;;;41.47;37.43;;;14.90;99.90;;;;;;5108779;27;20521;-75
2021/05/13 07:56:08;;;;;;;39.37;35.57;;;14.90;99.90;;;;;;5111099;27;20461;-76
2021/05/13 07:58:36;;;;;;;40.00;35.63;;;14.90;99.90;;;;;;5119037;27;20487;-74
2021/05/13 08:01:02;;;;;;;39.80;36.07;;;15.00;99.90;;;;;;5116495;27;20658;-76
2021/05/13 08:03:28;;;;;;;36.57;33.17;;;15.10;99.90;;;;;;5111381;27;20869;-73
2021/05/13 08:05:54;;;;;;;38.87;32.73;;;15.30;99.90;;;;;;5114816;27;20634;-76
2021/05/13 08:08:21;;;;;;;34.50;31.03;;;15.50;99.90;;;;;;5108234;27;20788;-74
2021/05/13 08:10:48;;;;;;;34.80;31.13;;;15.60;99.90;;;;;;5116768;27;20465;-74
2021/05/13 08:13:16;;;;;;;33.10;29.80;;;15.80;99.90;;;;;;5117447;27;20789;-74
2021/05/13 08:15:44;;;;;;;31.30;28.07;;;16.00;99.90;;;;;;5111159;27;20472;-72
2021/05/13 08:18:10;;;;;;;31.47;28.43;;;16.20;99.90;;;;;;5116716;27;20480;-75
2021/05/13 08:20:36;;;;;;;24.93;22.90;;;16.50;99.90;;;;;;5111271;27;20840;-73
2021/05/13 08:23:03;;;;;;;26.63;24.33;;;17.00;99.90;;;;;;5113717;27;20467;-75
2021/05/13 08:25:30;;;;;;;24.60;22.60;;;17.80;99.90;;;;;;5118180;27;20458;-74
2021/05/13 08:27:56;;;;;;;23.67;21.90;;;19.00;99.90;;;;;;5113015;27;20461;-73
2021/05/13 08:30:23;;;;;;;24.10;22.30;;;20.10;99.90;;;;;;5119274;27;21178;-74
2021/05/13 08:32:50;;;;;;;22.90;21.20;;;20.80;99.90;;;;;;5112447;27;20465;-72
2021/05/13 08:35:17;;;;;;;24.40;22.07;;;21.60;99.90;;;;;;5110220;27;20461;-74
2021/05/13 08:37:43;;;;;;;22.37;20.60;;;22.00;99.90;;;;;;5117603;27;20493;-77
2021/05/13 08:40:11;;;;;;;21.90;20.27;;;22.00;99.90;;;;;;5115317;27;20475;-75
2021/05/13 08:42:37;;;;;;;24.27;22.17;;;22.30;99.90;;;;;;5120810;27;20463;-74
2021/05/13 08:45:05;;;;;;;22.93;20.90;;;22.60;99.90;;;;;;5115050;27;20456;-74
2021/05/13 08:47:32;;;;;;;21.27;19.50;;;23.10;99.90;;;;;;5113092;27;20472;-77
2021/05/13 08:50:02;;;;;;;21.30;19.90;;;23.20;99.90;;;;;;5106874;27;20464;-77
2021/05/13 08:52:30;;;;;;;22.80;21.10;;;23.30;99.90;;;;;;5116483;27;21056;-75
2021/05/13 08:54:57;;;;;;;20.87;19.17;;;23.80;99.90;;;;;;5114844;27;20457;-75
2021/05/13 08:57:24;;;;;;;21.40;19.90;;;24.40;99.90;;;;;;5111429;27;20521;-77
2021/05/13 08:59:51;;;;;;;21.73;20.00;;;23.80;99.90;;;;;;5107041;27;20453;-75
2021/05/13 09:02:18;;;;;;;21.53;19.87;;;24.80;99.90;;;;;;5113762;27;21492;-76
2021/05/13 09:04:46;;;;;;;19.37;17.63;;;25.60;99.90;;;;;;5117873;27;20461;-77
2021/05/13 09:07:16;;;;;;;20.50;19.20;;;25.90;99.80;;;;;;5117762;27;20467;-75
2021/05/13 09:09:59;;;;;;;19.83;18.50;;;25.90;98.40;;;;;;5113372;27;20468;-75
2021/05/13 09:12:28;;;;;;;20.63;18.70;;;26.70;97.10;;;;;;5107128;27;20840;-74
2021/05/13 09:15:00;;;;;;;19.80;18.10;;;26.30;96.90;;;;;;5113882;27;20468;-76
2021/05/13 09:17:28;;;;;;;18.77;17.57;;;25.20;95.80;;;;;;5119808;27;20480;-75
2021/05/13 09:19:55;;;;;;;19.67;18.03;;;26.20;95.40;;;;;;5112552;27;20838;-76
2021/05/13 09:22:25;;;;;;;20.70;19.07;;;27.20;93.70;;;;;;5114186;27;20460;-75
2021/05/13 09:24:54;;;;;;;17.83;16.53;;;25.70;93.10;;;;;;5113123;27;20692;-77
2021/05/13 09:27:26;;;;;;;17.83;16.40;;;25.10;91.30;;;;;;5116181;27;20460;-76
2021/05/13 09:30:13;;;;;;;17.37;16.07;;;26.00;90.80;;;;;;5108275;27;20480;-75
2021/05/13 09:32:40;;;;;;;16.53;15.27;;;26.30;85.10;;;;;;5109293;27;20460;-76
2021/05/13 09:35:09;;;;;;;17.23;16.33;;;26.60;82.80;;;;;;5112696;27;20515;-75
2021/05/13 09:37:42;;;;;;;18.43;17.13;;;27.10;81.30;;;;;;5109836;27;20456;-77
2021/05/13 09:40:10;;;;;;;16.70;15.60;;;26.20;83.60;;;;;;5122661;27;20460;-75
2021/05/13 09:42:36;;;;;;;15.53;14.63;;;27.30;82.00;;;;;;5115112;27;20970;-75
2021/05/13 09:45:04;;;;;;;17.70;16.30;;;27.30;72.30;;;;;;5114937;27;20482;-75
2021/05/13 09:47:34;;;;;;;17.33;15.70;;;27.70;72.10;;;;;;5105335;27;20491;-75
2021/05/13 09:50:05;;;;;;;15.70;14.70;;;28.00;69.70;;;;;;5116645;27;20806;-75
2021/05/13 09:52:43;;;;;;;16.27;15.37;;;27.90;69.70;;;;;;5113393;27;20538;-74
2021/05/13 09:55:12;;;;;;;17.00;15.93;;;27.20;71.20;;;;;;5110735;27;20452;-76
2021/05/13 09:57:38;;;;;;;18.20;16.57;;;26.60;70.70;;;;;;5110382;27;21085;-75
2021/05/13 10:00:07;;;;;;;18.47;17.27;;;26.00;77.30;;;;;;5114586;27;20567;-74
2021/05/13 10:02:34;;;;;;;18.53;16.77;;;27.10;70.20;;;;;;5114863;27;20456;-74
2021/05/13 10:05:01;;;;;;;17.13;16.03;;;27.70;67.80;;;;;;5105497;27;20464;-75
2021/05/13 10:07:27;;;;;;;17.73;16.37;;;29.00;68.20;;;;;;5110518;27;20943;-76
2021/05/13 10:09:55;;;;;;;16.13;15.13;;;29.40;64.70;;;;;;5113880;27;20835;-76
2021/05/13 10:12:22;;;;;;;15.83;14.70;;;28.80;58.20;;;;;;5105921;27;20468;-76
2021/05/13 10:14:50;;;;;;;15.93;14.90;;;28.30;55.30;;;;;;5113185;27;20489;-76
2021/05/13 10:17:18;;;;;;;15.20;14.30;;;25.70;58.20;;;;;;5108367;27;20891;-75
2021/05/13 10:19:48;;;;;;;15.13;14.30;;;25.80;58.60;;;;;;5112892;27;20534;-75
2021/05/13 10:22:16;;;;;;;16.43;15.43;;;25.30;58.80;;;;;;5111735;27;20856;-76
2021/05/13 10:24:43;;;;;;;16.10;14.70;;;26.10;64.00;;;;;;5108477;27;20511;-78
2021/05/13 10:27:21;;;;;;;14.40;13.70;;;26.30;63.30;;;;;;5108976;27;20456;-76
2021/05/13 10:29:59;;;;;;;15.03;14.20;;;26.90;56.60;;;;;;5108570;27;20460;-76
2021/05/13 10:32:30;;;;;;;14.40;13.67;;;27.50;53.50;;;;;;5108377;27;20461;-75
2021/05/13 10:34:58;;;;;;;15.80;14.90;;;27.70;54.90;;;;;;5118336;27;20476;-76
2021/05/13 10:37:34;;;;;;;14.80;14.10;;;27.20;56.10;;;;;;5113759;27;20460;-76
2021/05/13 10:40:25;;;;;;;14.20;13.50;;;27.30;55.70;;;;;;5117782;27;20467;-76
2021/05/13 10:43:00;;;;;;;14.80;13.90;;;27.20;55.40;;;;;;5113468;27;20465;-75
2021/05/13 10:45:33;;;;;;;15.23;14.40;;;27.10;57.60;;;;;;5113708;27;21098;-75
2021/05/13 10:48:25;;;;;;;13.93;13.20;;;26.30;56.10;;;;;;5107733;28;20484;-75
2021/05/13 10:50:55;;;;;;;15.47;14.50;;;27.30;54.50;;;;;;5095929;28;20473;-75
2021/05/13 10:53:48;;;;;;;15.13;14.23;;;28.00;55.10;;;;;;5114904;28;20503;-75
2021/05/13 10:56:32;;;;;;;15.10;14.20;;;28.90;52.70;;;;;;5109375;28;20468;-74
2021/05/13 10:59:16;;;;;;;15.80;14.67;;;29.50;52.20;;;;;;5113525;28;21061;-73
2021/05/13 11:01:46;;;;;;;15.27;14.50;;;29.60;52.00;;;;;;5105713;28;20492;-73
2021/05/13 11:04:40;;;;;;;14.57;13.67;;;29.90;47.90;;;;;;5119470;28;20963;-74
2021/05/13 11:07:33;;;;;;;13.87;13.17;;;28.70;46.10;;;;;;5115235;27;20455;-74
2021/05/13 11:10:01;;;;;;;13.63;13.03;;;29.50;47.60;;;;;;5112922;27;20467;-74
2021/05/13 11:12:36;;;;;;;15.20;14.40;;;29.70;46.40;;;;;;5114497;27;20458;-73
2021/05/13 11:15:16;;;;;;;13.97;13.20;;;29.10;45.40;;;;;;5111254;27;20459;-73
2021/05/13 11:18:17;;;;;;;15.53;14.73;;;29.00;45.70;;;;;;5110827;27;20588;-73
2021/05/13 11:20:55;;;;;;;15.30;14.50;;;28.50;47.00;;;;;;5108491;27;20500;-73
2021/05/13 11:23:24;;;;;;;14.77;13.97;;;28.50;46.90;;;;;;5118905;27;20997;-73
2021/05/13 11:25:52;;;;;;;14.33;13.53;;;28.60;44.90;;;;;;5114940;27;21214;-73
2021/05/13 11:28:39;;;;;;;14.97;14.07;;;27.70;46.80;;;;;;5111720;27;20882;-73
2021/05/13 11:31:15;;;;;;;14.40;13.70;;;27.90;46.60;;;;;;5109850;27;20451;-73
2021/05/13 11:33:43;;;;;;;14.53;13.73;;;27.90;46.70;;;;;;5109528;27;20970;-73
2021/05/13 11:36:12;;;;;;;14.70;14.00;;;28.00;47.40;;;;;;5104274;27;20471;-73
2021/05/13 11:38:39;;;;;;;15.03;14.33;;;27.80;49.80;;;;;;5104456;27;20452;-72
2021/05/13 11:41:07;;;;;;;15.00;14.00;;;28.50;46.10;;;;;;5113761;27;20468;-73
2021/05/13 11:43:34;;;;;;;13.77;13.00;;;28.90;47.80;;;;;;5107834;27;20453;-73
2021/05/13 11:46:03;;;;;;;15.00;13.70;;;29.20;46.40;;;;;;5116568;27;20476;-73
2021/05/13 11:48:33;;;;;;;14.73;14.00;;;30.00;46.50;;;;;;5109965;27;20551;-73
2021/05/13 11:51:01;;;;;;;14.40;13.60;;;30.60;44.20;;;;;;5118811;27;20461;-74
2021/05/13 11:53:29;;;;;;;14.50;13.70;;;31.20;43.60;;;;;;5116371;27;20453;-73
2021/05/13 11:55:56;;;;;;;13.70;13.00;;;31.20;42.80;;;;;;5116348;27;21001;-74
2021/05/13 11:58:39;;;;;;;13.60;13.00;;;30.60;40.80;;;;;;5106067;27;21186;-74
2021/05/13 12:01:23;;;;;;;13.90;13.10;;;30.10;40.90;;;;;;5114719;27;20456;-74
2021/05/13 12:03:57;;;;;;;14.50;13.70;;;29.60;41.20;;;;;;5116670;27;20513;-74
2021/05/13 12:06:25;;;;;;;13.60;13.00;;;29.00;41.80;;;;;;5113596;27;20653;-74
2021/05/13 12:08:51;;;;;;;13.90;13.20;;;29.30;42.20;;;;;;5116376;27;20484;-74
2021/05/13 12:11:20;;;;;;;14.37;13.67;;;29.90;42.40;;;;;;5110706;27;20660;-75
2021/05/13 12:13:47;;;;;;;14.23;13.43;;;30.90;41.40;;;;;;5111697;27;20563;-74
2021/05/13 12:16:14;;;;;;;15.00;14.20;;;30.60;40.90;;;;;;5108322;27;20967;-76
2021/05/13 12:18:42;;;;;;;15.60;14.60;;;30.80;40.90;;;;;;5118029;27;20464;-76
2021/05/13 12:21:11;;;;;;;14.80;13.90;;;31.50;41.90;;;;;;5125223;27;20460;-75
2021/05/13 12:23:40;;;;;;;15.30;14.50;;;31.70;42.30;;;;;;5120547;27;21406;-74
2021/05/13 12:26:07;;;;;;;14.13;13.33;;;31.60;41.60;;;;;;5114993;27;20464;-76
2021/05/13 12:28:35;;;;;;;13.13;12.43;;;31.30;41.90;;;;;;5111538;27;21020;-76
2021/05/13 12:31:02;;;;;;;13.17;12.57;;;30.40;43.30;;;;;;5111498;27;20461;-75
2021/05/13 12:33:34;;;;;;;13.87;13.00;;;30.60;42.00;;;;;;5116415;27;20541;-76
2021/05/13 12:36:01;;;;;;;14.07;13.27;;;30.00;42.50;;;;;;5107565;27;20526;-75
2021/05/13 12:38:29;;;;;;;14.50;13.60;;;29.30;44.60;;;;;;5118422;27;20537;-76